Pointe-Lebel, Canada
Current Conditions -  °F | °C
As of 3:10 PM on Friday 28 Nov 2014 (Local Time) from CYBC Reporting Station
Overcast Overcast  
Wind Chill: 10°   Ceiling: 2800
Heat Index: 19°   Visibility: 9mi
Dew Point: 10°   Wind: 7mph
Humidity: 68%   Direction: 240°WSW
Pressure: 30.04"   Gusts: NA
Location:  49.15°N, 68.2°W
Report Text: CYBC 282010Z AUTO 24006KT 9SM BKN028 BKN034 OVC100 M07/M12 A3004 RMK SLP175
Loading
Personal Weather Stations






























Interactive Weather Map New forecast layout! Learn more

10-Day Weather Forecast

Advertisements
Track Severe Weather on mobile